Atlantic City, WY

9:06 PM MDT on April 18, 2015 (GMT -0600)
WYDOT | | Change Station
CLOSE
Current Station
Personal Weather Station
Location: Lander, WY
Elevation: 8185 ft
Nearby Weather Stations

Elev 8185 ft 42.48 °N, 108.84 °W | Updated 25 minutes ago

Light Snow
Light Snow
34 °F
Feels Like 21 °F
N
25
Wind Variable Wind from NNE
Gusts 32.0 mph

Today
High -- | Low -- °F
--% Chance of Precip.
Yesterday
High -- | Low -- °F
Precip. -- in
6:29 AM 7:59 PM
New Moon, 0% visible
Pressure 30.04 in
Visibility 5.0 miles
Clouds Scattered Clouds 1200 ft
Mostly Cloudy 4200 ft
Overcast 4800 ft
Windchill 21 °F
Dew Point 30 °F
Humidity 84%
Rainfall in
Snow Depth Not available.
UV 0 out of 12
Pollen 9.60 out of 12
Air Quality Not available.
Flu Activity Local Activity
METAR KFWZ 190255Z AUTO 36020G25KT 5SM -SN SCT012 BKN042 OVC048 01/00 A3004 RMK AO2

More Conditions Fewer Conditions

Pressure 30.04 in
Visibility 5.0 miles
Clouds Scattered Clouds 1200 ft
Mostly Cloudy 4200 ft
Overcast 4800 ft
Windchill 21 °F
Dew Point 30 °F
Humidity 84%
Rainfall in
Snow Depth Not available.
UV 0 out of 12
Pollen 9.60 out of 12
Air Quality Not available.
Flu Activity Local Activity
METAR KFWZ 190255Z AUTO 36020G25KT 5SM -SN SCT012 BKN042 OVC048 01/00 A3004 RMK AO2

More Conditions Fewer Conditions

10-Day Weather Forecast

Almanac

Astronomy

Apr. 18, 2015 Rise Set
Actual Time
Civil Twilight
Nautical Twilight
Astronomical Twilight
Moon
Length of Visible Light
Length of Day
Tomorrow will be .
, % of the Moon is Illuminated

Today's Extremes

State Highs State Lows

Community

WunderPhotos

Upload Photos

1,814,657 photos uploaded!

WunderBlogs® & News

Nearby

Air Quality

  Air Quality AQ Index Pollutant
Not available.

Snow Depth

Station Depth Elevation

Earthquake Activity

City Distance Mag. Time & Date
Minimum magnitude displayed is 2.5.

Coastal Water Temperatures

Place Temperature

Stations

Nearby Weather Stations

Station Location Temp. Windchill Dew Point Humidity Wind Precip. Elev Updated Type